Time;durP1;ratioP1;P1;durP2;ratioP2;P2;SDS_P1;SDS_P2;PMS_P1;PMS_P2;Temp;Humidity;BMP_temperature;BMP_pressure;BME280_temperature;BME280_humidity;BME280_pressure;Samples;Min_cycle;Max_cycle;Signal;HPM_P1;HPM_P2
2021/01/29 00:00:43;;;;;;;3.60;1.10;;;;;;;9.23;nan;95395.00;4995864;28;21259;-70
2021/01/29 00:03:12;;;;;;;0.80;0.60;;;;;;;;;;4994557;28;20602;-72
2021/01/29 00:05:41;;;;;;;2.17;0.70;;;;;;;;;;4978271;28;20980;-73
2021/01/29 00:08:10;;;;;;;2.33;0.57;;;;;;;;;;4993588;28;20860;-71
2021/01/29 00:10:38;;;;;;;1.83;0.50;;;;;;;9.15;nan;95366.22;4995919;28;20482;-73
2021/01/29 00:16:34;;;;;;;0.70;0.50;;;;;;;;;;4994225;28;20882;-72
2021/01/29 00:19:02;;;;;;;0.70;0.60;;;;;;;9.04;nan;95327.28;4996819;28;20457;-72
2021/01/29 00:21:30;;;;;;;0.90;0.60;;;;;;;9.11;nan;95319.84;5016942;28;20543;-70
2021/01/29 00:23:58;;;;;;;2.03;0.77;;;;;;;9.11;nan;95322.44;4975351;28;21042;-72
2021/01/29 00:26:25;;;;;;;0.90;0.67;;;;;;;9.11;nan;95317.25;4992347;28;20922;-72
2021/01/29 00:28:53;;;;;;;1.93;0.80;;;;;;;9.07;nan;95295.91;4995115;28;20466;-69
2021/01/29 00:31:23;;;;;;;2.53;0.70;;;;;;;9.03;nan;95289.31;4972190;28;20475;-70
2021/01/29 00:33:51;;;;;;;3.23;0.70;;;;;;;9.04;nan;95296.16;4991418;28;20455;-70
2021/01/29 00:36:20;;;;;;;0.80;0.50;;;;;;;9.01;nan;95311.94;4988688;28;20537;-71
2021/01/29 00:38:48;;;;;;;1.10;0.60;;;;;;;9.05;nan;95308.19;4980342;28;21233;-71
2021/01/29 00:41:41;;;;;;;1.83;0.60;;;;;;;9.06;nan;95294.25;4995680;28;20945;-71
2021/01/29 00:44:11;;;;;;;2.47;0.70;;;;;;;;;;4977538;28;20490;-71
2021/01/29 00:46:39;;;;;;;0.90;0.70;;;;;;;9.07;nan;95300.28;4995028;28;20550;-70
2021/01/29 00:49:08;;;;;;;1.07;0.60;;;;;;;9.13;nan;95290.25;4993267;28;20552;-73
2021/01/29 00:51:36;;;;;;;1.50;0.70;;;;;;;9.13;nan;95290.25;4977029;28;20463;-72
2021/01/29 00:54:04;;;;;;;0.97;0.50;;;;;;;9.17;nan;95276.09;4977616;28;20766;-72
2021/01/29 00:56:31;;;;;;;1.70;0.80;;;;;;;9.23;nan;95279.97;4990502;28;20473;-73
2021/01/29 00:58:58;;;;;;;2.70;1.00;;;;;;;9.25;nan;95273.72;5014147;28;20928;-71
2021/01/29 01:01:25;;;;;;;0.90;0.53;;;;;;;9.22;nan;95279.16;5015169;28;20587;-73
2021/01/29 01:03:55;;;;;;;1.37;0.60;;;;;;;9.25;nan;95268.53;5012780;28;20442;-73
2021/01/29 01:06:22;;;;;;;0.70;0.50;;;;;;;9.24;nan;95264.28;5010240;28;20788;-73
2021/01/29 01:08:49;;;;;;;0.80;0.50;;;;;;;9.23;nan;95257.44;5012402;28;20457;-73
2021/01/29 01:11:16;;;;;;;0.80;0.60;;;;;;;9.19;nan;95248.25;5017178;28;20466;-74
2021/01/29 01:13:43;;;;;;;0.80;0.60;;;;;;;9.23;nan;95238.44;5018400;28;20837;-75
2021/01/29 01:16:09;;;;;;;1.30;0.80;;;;;;;9.22;nan;95242.00;5016088;28;20561;-72
2021/01/29 01:18:36;;;;;;;1.27;0.50;;;;;;;;;;5017148;28;20468;-72
2021/01/29 01:21:03;;;;;;;1.17;0.60;;;;;;;9.17;nan;95212.97;5016140;28;21067;-73
2021/01/29 01:23:34;;;;;;;0.90;0.60;;;;;;;;;;5017316;28;20482;-72
2021/01/29 01:26:00;;;;;;;2.50;0.60;;;;;;;;;;5016761;28;20832;-73
2021/01/29 01:28:27;;;;;;;0.80;0.60;;;;;;;9.06;nan;95206.00;5017834;28;20451;-72
2021/01/29 01:30:54;;;;;;;0.70;0.50;;;;;;;9.14;nan;95201.03;5016205;28;20466;-72
2021/01/29 01:33:21;;;;;;;1.53;0.90;;;;;;;9.09;nan;95199.75;5015527;28;20457;-73
2021/01/29 01:35:48;;;;;;;1.13;0.60;;;;;;;9.01;nan;95197.75;5017465;28;20988;-74
2021/01/29 01:38:14;;;;;;;1.13;0.70;;;;;;;9.04;nan;95187.16;5017509;28;20540;-70
2021/01/29 01:40:44;;;;;;;3.13;0.80;;;;;;;8.98;nan;95182.44;5016725;28;20498;-72
2021/01/29 01:43:11;;;;;;;2.00;0.70;;;;;;;;;;5016165;28;20903;-74
2021/01/29 01:45:58;;;;;;;2.50;1.10;;;;;;;8.82;nan;95178.56;5016903;28;20466;-74
2021/01/29 01:48:32;;;;;;;0.70;0.50;;;;;;;8.76;nan;95172.09;5015447;28;20529;-72
2021/01/29 01:50:59;;;;;;;0.90;0.50;;;;;;;8.76;nan;95172.09;5016098;28;20632;-75
2021/01/29 01:53:30;;;;;;;3.03;0.60;;;;;;;8.73;nan;95156.78;5016284;28;20542;-74
2021/01/29 01:56:06;;;;;;;1.70;0.90;;;;;;;8.75;nan;95154.03;5017727;28;20462;-75
2021/01/29 01:58:33;;;;;;;0.93;0.50;;;;;;;8.66;nan;95129.66;5021337;28;20455;-74
2021/01/29 02:01:00;;;;;;;2.50;0.70;;;;;;;;;;5015646;28;20463;-74
2021/01/29 02:03:30;;;;;;;0.90;0.60;;;;;;;8.64;nan;95131.53;5015591;28;20508;-74
2021/01/29 02:05:59;;;;;;;1.27;0.63;;;;;;;8.68;nan;95132.94;5016526;28;20569;-73
2021/01/29 02:08:29;;;;;;;2.37;0.70;;;;;;;8.61;nan;95134.38;5016469;28;21169;-73
2021/01/29 02:10:57;;;;;;;1.87;0.70;;;;;;;8.60;nan;95122.34;5014509;28;21024;-73
2021/01/29 02:13:25;;;;;;;2.83;0.70;;;;;;;8.46;nan;95101.03;5017966;28;20510;-74
2021/01/29 02:15:57;;;;;;;4.50;0.70;;;;;;;8.54;nan;95099.50;5015183;28;20487;-74
2021/01/29 02:18:36;;;;;;;0.70;0.60;;;;;;;8.56;nan;95102.78;5013566;28;20679;-76
2021/01/29 02:21:39;;;;;;;1.00;0.60;;;;;;;8.58;nan;95116.47;5013444;28;21469;-74
2021/01/29 02:24:45;;;;;;;0.80;0.60;;;;;;;8.55;nan;95100.31;5014683;28;20533;-74
2021/01/29 02:27:27;;;;;;;0.70;0.60;;;;;;;8.61;nan;95074.72;5016427;28;20486;-73
2021/01/29 02:30:19;;;;;;;2.80;0.50;;;;;;;;;;5013849;28;20776;-70
2021/01/29 02:33:31;;;;;;;0.90;0.60;;;;;;;8.58;nan;95089.69;5023124;28;20455;-75
2021/01/29 02:36:24;;;;;;;0.70;0.60;;;;;;;8.55;nan;95069.22;5012935;28;21038;-71
2021/01/29 02:39:29;;;;;;;0.70;0.50;;;;;;;8.63;nan;95078.00;5014280;28;20496;-73
2021/01/29 02:42:17;;;;;;;0.80;0.63;;;;;;;8.66;nan;95056.22;4998653;28;20480;-75
2021/01/29 02:45:06;;;;;;;0.90;0.70;;;;;;;;;;5018619;28;20454;-73
2021/01/29 02:47:41;;;;;;;0.80;0.50;;;;;;;8.66;nan;95046.66;5009828;28;20917;-71
2021/01/29 02:50:22;;;;;;;1.10;0.60;;;;;;;8.71;nan;95054.09;5016154;28;20851;-69
2021/01/29 02:52:56;;;;;;;1.00;0.60;;;;;;;8.74;nan;95043.44;5016356;28;20484;-71
2021/01/29 02:55:29;;;;;;;1.10;0.50;;;;;;;8.71;nan;95039.31;5014655;28;20560;-71
2021/01/29 02:58:02;;;;;;;0.80;0.60;;;;;;;8.71;nan;95012.59;5015489;28;20477;-71
2021/01/29 03:00:37;;;;;;;0.80;0.50;;;;;;;8.74;nan;95027.88;5019512;28;20458;-72
2021/01/29 03:03:08;;;;;;;0.60;0.47;;;;;;;8.74;nan;95017.50;5020847;28;20540;-73
2021/01/29 03:05:42;;;;;;;1.73;0.50;;;;;;;8.81;nan;95024.69;5016796;28;21160;-71
2021/01/29 03:08:15;;;;;;;0.70;0.50;;;;;;;8.80;nan;95022.22;5014292;28;21062;-72
2021/01/29 03:10:52;;;;;;;0.70;0.67;;;;;;;8.85;nan;95014.91;5015150;28;20504;-70
2021/01/29 03:13:23;;;;;;;0.80;0.60;;;;;;;;;;5014694;28;20513;-71
2021/01/29 03:15:56;;;;;;;2.07;0.80;;;;;;;8.91;nan;95023.00;5013573;28;21037;-71
2021/01/29 03:18:27;;;;;;;0.80;0.50;;;;;;;8.93;nan;95013.31;5013302;28;20908;-73
2021/01/29 03:21:01;;;;;;;0.70;0.50;;;;;;;8.94;nan;95004.56;5013791;28;20564;-72
2021/01/29 03:23:30;;;;;;;0.60;0.50;;;;;;;;;;5014375;28;20811;-74
2021/01/29 03:26:08;;;;;;;0.90;0.50;;;;;;;8.91;nan;95004.84;5015823;28;20493;-72
2021/01/29 03:28:38;;;;;;;0.80;0.60;;;;;;;;;;5016048;28;20827;-72
2021/01/29 03:31:08;;;;;;;6.10;0.60;;;;;;;8.97;nan;94996.56;5015138;28;21043;-74
2021/01/29 03:33:38;;;;;;;2.03;0.60;;;;;;;9.06;nan;94985.44;5013932;28;20451;-71
2021/01/29 03:36:08;;;;;;;0.60;0.50;;;;;;;9.09;nan;94992.16;5014174;28;20847;-71
2021/01/29 03:38:40;;;;;;;0.70;0.50;;;;;;;9.07;nan;94984.47;5014041;28;20696;-70
2021/01/29 03:41:20;;;;;;;1.73;0.50;;;;;;;9.10;nan;94984.25;5013147;28;20958;-70
2021/01/29 03:44:04;;;;;;;0.60;0.50;;;;;;;9.09;nan;94977.38;5012319;28;21020;-71
2021/01/29 03:46:37;;;;;;;0.80;0.50;;;;;;;9.02;nan;94976.25;5012035;28;20498;-72
2021/01/29 03:49:16;;;;;;;2.83;0.60;;;;;;;8.97;nan;94993.97;5013125;28;20451;-71
2021/01/29 03:51:51;;;;;;;1.70;0.60;;;;;;;8.91;nan;94963.31;5013316;28;21225;-71
2021/01/29 03:54:22;;;;;;;1.57;0.60;;;;;;;;;;5012625;28;20755;-72
2021/01/29 03:57:01;;;;;;;2.30;0.60;;;;;;;8.78;nan;94952.28;5015326;28;21214;-71
2021/01/29 03:59:35;;;;;;;0.70;0.50;;;;;;;8.76;nan;94938.63;5012836;28;21182;-72
2021/01/29 04:02:20;;;;;;;0.97;0.50;;;;;;;8.78;nan;94941.13;5014454;28;21178;-70
2021/01/29 04:04:56;;;;;;;0.80;0.60;;;;;;;8.70;nan;94927.94;5014062;28;20834;-71
2021/01/29 04:07:26;;;;;;;0.70;0.50;;;;;;;;;;5011564;28;20852;-72
2021/01/29 04:09:57;;;;;;;0.70;0.50;;;;;;;8.67;nan;94934.19;5012182;28;20920;-71
2021/01/29 04:12:43;;;;;;;1.33;0.50;;;;;;;8.62;nan;94915.59;5011097;28;21019;-71
2021/01/29 04:15:13;;;;;;;0.60;0.40;;;;;;;;;;5015062;28;20538;-71
2021/01/29 04:17:47;;;;;;;1.53;0.50;;;;;;;8.58;nan;94888.28;5014011;28;20867;-70
2021/01/29 04:20:33;;;;;;;1.30;0.50;;;;;;;8.57;nan;94881.41;5012277;28;20860;-72
2021/01/29 04:23:04;;;;;;;0.97;0.50;;;;;;;8.51;nan;94866.38;5015082;28;21002;-72
2021/01/29 04:25:35;;;;;;;1.00;0.50;;;;;;;8.50;nan;94856.94;5014410;28;21034;-71
2021/01/29 04:28:05;;;;;;;1.00;0.50;;;;;;;;;;5016159;28;20563;-71
2021/01/29 04:30:34;;;;;;;1.00;0.50;;;;;;;8.51;nan;94850.84;5013410;28;20777;-72
2021/01/29 04:33:04;;;;;;;0.63;0.50;;;;;;;;;;5015467;28;20447;-71
2021/01/29 04:35:34;;;;;;;1.97;0.47;;;;;;;8.52;nan;94829.13;5017300;28;20517;-71
2021/01/29 04:38:07;;;;;;;1.00;0.47;;;;;;;;;;5013880;28;20917;-71
2021/01/29 04:40:43;;;;;;;0.70;0.50;;;;;;;8.52;nan;94842.09;5013974;28;21049;-71
2021/01/29 04:43:45;;;;;;;0.60;0.50;;;;;;;8.50;nan;94812.88;5012008;28;20546;-71
2021/01/29 04:46:18;;;;;;;1.33;0.50;;;;;;;;;;4997176;28;21000;-71
2021/01/29 04:48:47;;;;;;;0.60;0.50;;;;;;;;;;5013585;28;20449;-71
2021/01/29 04:51:33;;;;;;;0.60;0.40;;;;;;;8.48;nan;94783.66;5011591;28;21058;-71
2021/01/29 04:54:21;;;;;;;0.60;0.40;;;;;;;;;;5012689;28;20541;-72
2021/01/29 04:57:25;;;;;;;0.70;0.50;;;;;;;8.48;nan;94782.84;5017516;28;21014;-72
2021/01/29 05:00:15;;;;;;;1.73;0.60;;;;;;;8.42;nan;94794.53;5011261;28;21148;-70
2021/01/29 05:03:15;;;;;;;1.00;0.50;;;;;;;8.40;nan;94791.25;5012557;28;20481;-71
2021/01/29 05:06:12;;;;;;;0.70;0.40;;;;;;;8.38;nan;94785.38;5010309;28;20545;-72
2021/01/29 05:08:47;;;;;;;0.80;0.50;;;;;;;;;;4976339;28;20567;-68
2021/01/29 05:11:40;;;;;;;0.70;0.50;;;;;;;8.27;nan;94795.78;5010651;28;21157;-70
2021/01/29 05:14:30;;;;;;;0.60;0.40;;;;;;;8.27;nan;94788.97;5013004;28;20965;-71
2021/01/29 05:17:18;;;;;;;0.73;0.60;;;;;;;8.20;nan;94782.63;5011211;28;20574;-70
2021/01/29 05:20:03;;;;;;;1.60;0.60;;;;;;;8.12;nan;94764.28;5014546;28;20541;-70
2021/01/29 05:22:56;;;;;;;0.60;0.40;;;;;;;8.11;nan;94753.09;5014101;28;20478;-71
2021/01/29 05:25:59;;;;;;;0.77;0.50;;;;;;;8.11;nan;94747.09;4991199;28;20462;-70
2021/01/29 05:28:54;;;;;;;0.80;0.57;;;;;;;8.06;nan;94724.16;5011289;28;20931;-69
2021/01/29 05:31:40;;;;;;;0.80;0.60;;;;;;;8.09;nan;94743.81;5011153;28;20561;-70
2021/01/29 05:34:14;;;;;;;0.60;0.50;;;;;;;;;;5014298;28;20446;-70
2021/01/29 05:37:17;;;;;;;0.70;0.53;;;;;;;8.13;nan;94720.13;5012859;28;20930;-71
2021/01/29 05:39:55;;;;;;;0.70;0.50;;;;;;;8.12;nan;94728.84;5013039;28;21039;-72
2021/01/29 05:42:34;;;;;;;0.80;0.50;;;;;;;8.20;nan;94710.09;5011046;28;20682;-71
2021/01/29 05:45:15;;;;;;;1.23;0.70;;;;;;;8.27;nan;94690.50;5012200;28;20549;-72
2021/01/29 05:48:28;;;;;;;0.80;0.50;;;;;;;8.28;nan;94695.56;5012346;28;20456;-71
2021/01/29 05:51:27;;;;;;;1.40;0.80;;;;;;;8.24;nan;94701.94;5010089;28;20695;-73
2021/01/29 05:54:17;;;;;;;1.77;0.50;;;;;;;;;;5011330;28;20534;-70
2021/01/29 05:56:50;;;;;;;1.10;0.50;;;;;;;;;;5017273;28;20846;-73
2021/01/29 05:59:41;;;;;;;0.60;0.47;;;;;;;8.39;nan;94701.47;5017452;28;20455;-71
2021/01/29 06:02:27;;;;;;;0.70;0.50;;;;;;;8.49;nan;94728.25;5016829;28;20521;-73
2021/01/29 06:05:09;;;;;;;3.63;0.70;;;;;;;8.49;nan;94733.44;5015786;28;20804;-70
2021/01/29 06:08:06;;;;;;;0.70;0.50;;;;;;;8.49;nan;94730.06;5018192;28;20549;-71
2021/01/29 06:10:48;;;;;;;1.00;0.60;;;;;;;8.42;nan;94749.66;5016545;28;20996;-72
2021/01/29 06:13:44;;;;;;;1.33;0.70;;;;;;;8.35;nan;94751.91;5016616;28;21115;-71
2021/01/29 06:16:59;;;;;;;0.80;0.67;;;;;;;8.36;nan;94783.84;5014646;28;20544;-71
2021/01/29 06:19:57;;;;;;;8.87;0.70;;;;;;;8.43;nan;94785.81;5018125;28;21157;-72
2021/01/29 06:22:41;;;;;;;1.50;0.60;;;;;;;;;;5016661;28;20949;-71
2021/01/29 06:25:27;;;;;;;0.60;0.50;;;;;;;8.73;nan;94808.38;5020140;28;20501;-71
2021/01/29 06:28:37;;;;;;;0.70;0.50;;;;;;;8.84;nan;94780.59;5010606;28;20942;-71
2021/01/29 06:31:45;;;;;;;2.53;0.63;;;;;;;8.83;nan;94798.88;5015268;28;20565;-72
2021/01/29 06:34:41;;;;;;;0.60;0.50;;;;;;;8.71;nan;94779.97;4992900;28;20458;-70
2021/01/29 06:37:18;;;;;;;0.80;0.47;;;;;;;8.67;nan;94726.72;5013933;28;20895;-71
2021/01/29 06:39:56;;;;;;;0.60;0.50;;;;;;;;;;5015836;28;21088;-70
2021/01/29 06:43:04;;;;;;;0.90;0.80;;;;;;;8.61;nan;94767.91;5012231;28;20901;-71
2021/01/29 06:45:59;;;;;;;0.80;0.50;;;;;;;8.63;nan;94776.41;5016166;28;20956;-70
2021/01/29 06:48:45;;;;;;;0.70;0.50;;;;;;;8.62;nan;94806.69;5014573;28;21078;-70
2021/01/29 06:51:25;;;;;;;0.70;0.50;;;;;;;8.58;nan;94775.94;5016209;28;20474;-71
2021/01/29 06:54:06;;;;;;;0.70;0.50;;;;;;;8.54;nan;94751.22;5015501;28;20556;-71
2021/01/29 06:57:02;;;;;;;0.90;0.70;;;;;;;8.58;nan;94774.19;5017889;28;21054;-71
2021/01/29 07:00:07;;;;;;;0.80;0.50;;;;;;;8.54;nan;94783.16;5014312;28;20447;-70
2021/01/29 07:02:49;;;;;;;0.67;0.50;;;;;;;;;;5016042;28;21188;-70
2021/01/29 07:05:23;;;;;;;0.70;0.50;;;;;;;;;;5016815;28;20551;-70
2021/01/29 07:08:00;;;;;;;1.37;0.60;;;;;;;8.58;nan;94752.59;5014365;28;20451;-70
2021/01/29 07:10:52;;;;;;;0.93;0.50;;;;;;;8.60;nan;94767.09;5012312;28;20549;-70
2021/01/29 07:13:31;;;;;;;0.70;0.50;;;;;;;8.57;nan;94793.25;5010835;28;20243;-71
2021/01/29 07:16:18;;;;;;;2.40;0.50;;;;;;;8.58;nan;94788.91;5003290;28;20540;-71
2021/01/29 07:18:59;;;;;;;0.60;0.43;;;;;;;8.56;nan;94786.44;4993950;28;20899;-70
2021/01/29 07:21:37;;;;;;;0.80;0.50;;;;;;;8.58;nan;94794.09;4990946;28;20823;-71
2021/01/29 07:24:23;;;;;;;0.77;0.60;;;;;;;8.57;nan;94782.88;4995938;28;20455;-70
2021/01/29 07:27:00;;;;;;;0.80;0.50;;;;;;;;;;4990947;28;20491;-71
2021/01/29 07:29:44;;;;;;;0.93;0.50;;;;;;;8.62;nan;94774.72;5003368;28;20447;-70
2021/01/29 07:32:18;;;;;;;0.80;0.50;;;;;;;8.61;nan;94784.28;4996258;28;21001;-72
2021/01/29 07:34:56;;;;;;;2.40;0.50;;;;;;;8.68;nan;94794.97;4997110;28;20451;-72
2021/01/29 07:38:15;;;;;;;1.37;0.50;;;;;;;8.73;nan;94788.47;4993424;28;20888;-71
2021/01/29 07:41:23;;;;;;;4.10;0.50;;;;;;;8.77;nan;94783.84;4992259;28;20535;-71
2021/01/29 07:44:04;;;;;;;0.70;0.50;;;;;;;8.81;nan;94800.78;4996262;28;20445;-71
2021/01/29 07:46:55;;;;;;;0.70;0.50;;;;;;;8.89;nan;94813.94;4993815;28;20847;-71
2021/01/29 07:49:34;;;;;;;0.90;0.63;;;;;;;8.89;nan;94825.13;4992819;28;20754;-71
2021/01/29 07:52:16;;;;;;;0.87;0.53;;;;;;;8.93;nan;94800.56;4993188;28;20567;-71
2021/01/29 07:55:01;;;;;;;7.03;2.73;;;;;;;8.96;nan;94797.72;4993608;28;20910;-72
2021/01/29 07:57:41;;;;;;;3.27;1.57;;;;;;;8.98;nan;94803.59;4993214;28;20880;-71
2021/01/29 08:00:14;;;;;;;1.70;0.60;;;;;;;;;;4997133;28;20977;-72
2021/01/29 08:03:19;;;;;;;1.20;0.50;;;;;;;8.91;nan;94822.38;4997636;28;20547;-72
2021/01/29 08:05:57;;;;;;;1.03;0.60;;;;;;;8.75;nan;94804.72;4955219;28;20467;-71
2021/01/29 08:08:26;;;;;;;1.27;0.83;;;;;;;;;;4996549;28;20984;-72
2021/01/29 08:10:58;;;;;;;1.67;0.60;;;;;;;8.63;nan;94818.69;4994468;28;20549;-72
2021/01/29 08:13:40;;;;;;;0.97;0.60;;;;;;;8.62;nan;94830.00;4996470;28;20905;-73
2021/01/29 08:16:42;;;;;;;0.70;0.50;;;;;;;8.61;nan;94823.19;4996264;28;20464;-71
2021/01/29 08:19:13;;;;;;;1.83;0.60;;;;;;;8.60;nan;94818.97;4995581;28;20534;-72
2021/01/29 08:22:12;;;;;;;1.43;0.70;;;;;;;8.63;nan;94823.88;4995481;28;20549;-72
2021/01/29 08:25:08;;;;;;;1.03;0.63;;;;;;;8.63;nan;94829.06;4994369;28;20868;-71
2021/01/29 08:28:04;;;;;;;1.93;0.97;;;;;;;8.73;nan;94850.72;5013357;28;20549;-72
2021/01/29 08:30:47;;;;;;;1.63;1.00;;;;;;;;;;5014107;28;20734;-72
2021/01/29 08:33:45;;;;;;;1.83;0.90;;;;;;;8.71;nan;94811.09;5016649;28;20449;-72
2021/01/29 08:36:35;;;;;;;1.63;0.70;;;;;;;8.72;nan;94807.53;5014729;28;20869;-71
2021/01/29 08:39:12;;;;;;;2.77;1.40;;;;;;;8.80;nan;94846.66;5016926;28;20455;-72
2021/01/29 08:41:56;;;;;;;2.47;1.57;;;;;;;9.23;nan;94843.88;5016460;28;20574;-72
2021/01/29 08:44:59;;;;;;;2.07;0.97;;;;;;;10.69;nan;94849.91;5013772;28;20983;-71
2021/01/29 08:47:54;;;;;;;1.33;0.60;;;;;;;11.29;nan;94845.13;5008321;28;20768;-71
2021/01/29 08:50:33;;;;;;;2.60;0.70;;;;;;;10.86;nan;94868.25;4994889;28;20476;-71
2021/01/29 08:53:47;;;;;;;0.70;0.50;;;;;;;10.61;nan;94858.41;4985328;28;21167;-72
2021/01/29 08:56:19;;;;;;;2.20;0.60;;;;;;;9.89;nan;94885.66;4997467;28;20573;-71
2021/01/29 08:58:54;;;;;;;1.17;0.60;;;;;;;9.59;nan;94888.28;5014070;28;21219;-71
2021/01/29 09:01:23;;;;;;;0.80;0.50;;;;;;;;;;5012708;28;20535;-72
2021/01/29 09:03:59;;;;;;;1.10;0.70;;;;;;;10.35;nan;94883.31;5015373;28;20867;-72
2021/01/29 09:06:29;;;;;;;5.50;1.07;;;;;;;11.11;nan;94893.69;5012279;28;20561;-72
2021/01/29 09:08:59;;;;;;;1.30;0.60;;;;;;;12.34;nan;94879.34;5014258;28;20479;-71
2021/01/29 09:11:34;;;;;;;1.10;0.60;;;;;;;12.62;nan;94860.03;5015055;28;20797;-71
2021/01/29 09:14:07;;;;;;;4.03;0.70;;;;;;;12.47;nan;94866.75;5016000;28;20497;-72
2021/01/29 09:16:36;;;;;;;4.30;0.90;;;;;;;13.09;nan;94864.88;5016290;28;20960;-72
2021/01/29 09:19:07;;;;;;;6.23;0.90;;;;;;;13.59;nan;94842.31;5014853;28;20904;-72
2021/01/29 09:21:42;;;;;;;3.53;1.23;;;;;;;13.45;nan;94861.19;5014425;28;20564;-72
2021/01/29 09:24:18;;;;;;;4.50;0.70;;;;;;;12.13;nan;94872.72;5017332;28;20454;-71
2021/01/29 09:27:10;;;;;;;6.43;1.33;;;;;;;10.99;nan;94868.75;5012096;28;20961;-70
2021/01/29 09:29:43;;;;;;;2.97;0.70;;;;;;;10.69;nan;94876.75;5016638;28;20457;-71
2021/01/29 09:32:16;;;;;;;3.73;1.20;;;;;;;10.83;nan;94878.13;5015969;28;20474;-71
2021/01/29 09:34:48;;;;;;;2.17;0.70;;;;;;;10.50;nan;94896.75;5019977;28;20870;-71
2021/01/29 09:37:19;;;;;;;1.03;0.67;;;;;;;10.55;nan;94892.75;5018910;28;20511;-71
2021/01/29 09:40:00;;;;;;;6.83;1.10;;;;;;;;;;5017660;28;20746;-70
2021/01/29 09:42:52;;;;;;;10.77;2.20;;;;;;;12.05;nan;94886.53;5001027;28;21031;-71
2021/01/29 09:45:24;;;;;;;4.73;1.70;;;;;;;11.99;nan;94902.75;4999522;28;20816;-70
2021/01/29 09:47:58;;;;;;;2.63;0.70;;;;;;;12.14;nan;94893.47;4997129;28;20732;-70
2021/01/29 09:50:26;;;;;;;4.70;1.13;;;;;;;;;;4995812;28;20985;-71
2021/01/29 09:53:07;;;;;;;3.13;0.60;;;;;;;12.91;nan;94891.94;4997355;28;20457;-70
2021/01/29 09:55:39;;;;;;;3.90;0.87;;;;;;;12.49;nan;94906.56;4996151;28;21024;-71
2021/01/29 09:58:15;;;;;;;7.43;1.40;;;;;;;12.90;nan;94890.31;4999565;28;20501;-70
2021/01/29 10:00:44;;;;;;;2.47;1.33;;;;;;;;;;4996826;28;20471;-70
2021/01/29 10:03:20;;;;;;;5.83;1.17;;;;;;;12.63;nan;94903.44;4998473;28;20505;-70
2021/01/29 10:05:51;;;;;;;5.23;1.97;;;;;;;12.61;nan;94889.72;4997249;28;20565;-69
2021/01/29 10:08:21;;;;;;;4.93;1.33;;;;;;;12.55;nan;94916.41;4998054;28;20760;-71
2021/01/29 10:11:03;;;;;;;6.13;1.50;;;;;;;12.60;nan;94898.50;4999438;28;21042;-71
2021/01/29 10:14:02;;;;;;;5.10;1.23;;;;;;;12.99;nan;94905.09;4995927;28;20501;-70
2021/01/29 10:16:51;;;;;;;4.67;1.60;;;;;;;13.04;nan;94914.13;4997868;28;20780;-71
2021/01/29 10:19:26;;;;;;;7.10;0.87;;;;;;;12.91;nan;94907.63;4997691;28;20447;-71
2021/01/29 10:22:30;;;;;;;5.20;1.10;;;;;;;13.10;nan;94913.53;4997720;28;20552;-72
2021/01/29 10:25:12;;;;;;;3.10;1.03;;;;;;;13.46;nan;94903.81;4996261;28;20494;-72
2021/01/29 10:27:42;;;;;;;3.70;1.20;;;;;;;;;;4999067;28;20909;-70
2021/01/29 10:30:18;;;;;;;6.83;1.70;;;;;;;13.64;nan;94902.78;4998080;28;20926;-72
2021/01/29 10:33:03;;;;;;;5.27;1.30;;;;;;;14.33;nan;94916.56;4997972;28;21014;-71
2021/01/29 10:35:39;;;;;;;2.93;1.10;;;;;;;14.35;nan;94930.28;4997000;28;20525;-71
2021/01/29 10:38:13;;;;;;;5.20;0.90;;;;;;;13.65;nan;94921.91;4999527;28;20809;-71
2021/01/29 10:40:46;;;;;;;8.17;1.67;;;;;;;13.33;nan;94893.78;4997701;28;20470;-70
2021/01/29 10:43:22;;;;;;;5.87;1.00;;;;;;;13.00;nan;94922.41;4997296;28;20907;-71
2021/01/29 10:46:18;;;;;;;3.40;0.77;;;;;;;12.15;nan;94930.81;4998844;28;20550;-69
2021/01/29 10:48:53;;;;;;;8.10;1.33;;;;;;;11.28;nan;94915.59;4997555;28;20829;-70
2021/01/29 10:51:37;;;;;;;3.47;1.00;;;;;;;11.28;nan;94921.59;4997318;28;20863;-69
2021/01/29 10:54:07;;;;;;;8.30;2.17;;;;;;;11.50;nan;94939.50;4997749;28;20456;-71
2021/01/29 10:56:43;;;;;;;6.10;0.90;;;;;;;11.41;nan;94927.34;5002838;28;20470;-72
2021/01/29 10:59:26;;;;;;;7.23;1.07;;;;;;;11.10;nan;94957.16;4999686;28;20816;-71
2021/01/29 11:02:01;;;;;;;4.60;1.37;;;;;;;11.80;nan;94970.63;4999679;28;20762;-72
2021/01/29 11:04:33;;;;;;;5.67;0.83;;;;;;;;;;4997261;28;20443;-71
2021/01/29 11:07:06;;;;;;;3.80;1.10;;;;;;;21.40;100.00;107830.53;5001566;28;20549;-71
2021/01/29 11:09:37;;;;;;;11.13;1.50;;;;;;;;;;5003016;28;20444;-70
2021/01/29 11:12:17;;;;;;;10.80;1.97;;;;;;;11.98;nan;94963.69;5004801;28;20489;-72
2021/01/29 11:14:53;;;;;;;1.37;0.73;;;;;;;10.89;nan;94966.88;5001246;28;20957;-72
2021/01/29 11:17:24;;;;;;;4.50;0.93;;;;;;;10.46;nan;94979.41;4995967;28;20935;-72
2021/01/29 11:19:54;;;;;;;3.33;0.90;;;;;;;;;;4995776;28;20865;-72
2021/01/29 11:22:30;;;;;;;3.73;1.10;;;;;;;9.99;nan;95011.28;4997524;28;20533;-72
2021/01/29 11:25:02;;;;;;;13.83;1.60;;;;;;;;;;4993931;28;20505;-72
2021/01/29 11:27:36;;;;;;;6.67;1.17;;;;;;;9.91;nan;94998.09;4996032;28;20914;-71
2021/01/29 11:30:10;;;;;;;7.23;1.90;;;;;;;9.95;nan;94983.88;4995032;28;21159;-72
2021/01/29 11:32:40;;;;;;;8.00;1.47;;;;;;;10.05;nan;95004.75;4998141;28;20922;-72
2021/01/29 11:35:20;;;;;;;9.77;1.43;;;;;;;;;;4995532;28;20479;-72
2021/01/29 11:38:08;;;;;;;5.27;0.90;;;;;;;;;;4999286;28;20898;-72
2021/01/29 11:40:41;;;;;;;2.03;0.90;;;;;;;9.78;nan;94992.28;4994402;28;20568;-71
2021/01/29 11:43:17;;;;;;;10.90;1.30;;;;;;;9.73;nan;95002.25;4998198;28;20847;-72
2021/01/29 11:45:48;;;;;;;8.00;1.67;;;;;;;9.66;nan;95019.28;4996246;28;20509;-72
2021/01/29 11:48:22;;;;;;;6.30;1.20;;;;;;;9.71;nan;95005.91;4995896;28;20475;-72
2021/01/29 11:50:59;;;;;;;3.57;1.83;;;;;;;9.94;nan;95000.44;4996146;28;20482;-72
2021/01/29 11:53:35;;;;;;;4.63;1.03;;;;;;;10.61;nan;94992.88;4999006;28;20584;-72
2021/01/29 11:56:06;;;;;;;6.30;1.23;;;;;;;11.13;nan;95000.31;4996762;28;20467;-72
2021/01/29 11:58:45;;;;;;;2.40;0.97;;;;;;;11.10;nan;94982.34;4998091;28;20714;-72
2021/01/29 12:01:15;;;;;;;12.80;2.30;;;;;;;;;;4994161;28;20499;-72
2021/01/29 12:03:49;;;;;;;10.60;2.87;;;;;;;10.27;nan;95010.59;4997923;28;20455;-72
2021/01/29 12:06:20;;;;;;;4.33;1.40;;;;;;;9.80;nan;94980.00;4997282;28;21388;-72
2021/01/29 12:09:00;;;;;;;3.63;0.93;;;;;;;;;;4995098;28;20950;-72
2021/01/29 12:11:31;;;;;;;10.20;0.93;;;;;;;;;;4996328;28;21035;-70
2021/01/29 12:14:04;;;;;;;6.87;1.03;;;;;;;;;;5001799;28;20504;-72
2021/01/29 12:16:34;;;;;;;5.93;1.00;;;;;;;9.85;nan;94977.00;4996928;28;20487;-71
2021/01/29 12:19:04;;;;;;;9.73;1.20;;;;;;;9.85;nan;94993.44;4996610;28;20444;-73
2021/01/29 12:21:43;;;;;;;7.00;1.30;;;;;;;9.81;nan;94960.03;4994780;28;20857;-71
2021/01/29 12:24:23;;;;;;;11.63;1.30;;;;;;;9.76;nan;94982.97;4994479;28;21020;-71
2021/01/29 12:27:02;;;;;;;10.43;1.83;;;;;;;9.77;nan;94989.81;4992985;28;20947;-71
2021/01/29 12:29:40;;;;;;;8.67;2.13;;;;;;;9.71;nan;94980.78;4992984;28;20828;-71
2021/01/29 12:32:48;;;;;;;4.93;0.93;;;;;;;9.53;nan;94966.72;4995372;28;21013;-72
2021/01/29 12:35:24;;;;;;;5.40;1.70;;;;;;;;;;4988037;28;20471;-71
2021/01/29 12:38:09;;;;;;;5.40;1.10;;;;;;;9.31;nan;94971.25;4992750;28;20462;-71
2021/01/29 12:40:40;;;;;;;1.63;0.70;;;;;;;9.19;nan;94941.09;5001852;28;20463;-72
2021/01/29 12:43:18;;;;;;;4.70;1.10;;;;;;;9.15;nan;94966.50;4999762;28;20441;-72
2021/01/29 12:45:52;;;;;;;14.60;1.27;;;;;;;9.17;nan;94979.34;4995850;28;21030;-72
2021/01/29 12:48:31;;;;;;;2.07;0.97;;;;;;;9.18;nan;94981.84;4994987;28;20970;-72
2021/01/29 12:51:00;;;;;;;8.63;1.40;;;;;;;;;;4992522;28;20495;-72
2021/01/29 12:53:36;;;;;;;5.43;1.00;;;;;;;9.25;nan;94988.16;4995875;28;20479;-72
2021/01/29 12:56:21;;;;;;;2.13;0.70;;;;;;;9.20;nan;94979.09;4998387;28;21138;-72
2021/01/29 12:58:52;;;;;;;4.70;1.33;;;;;;;9.22;nan;94983.22;4993183;28;20550;-72
2021/01/29 13:01:39;;;;;;;2.47;0.97;;;;;;;9.32;nan;94978.09;5001390;28;20553;-72
2021/01/29 13:04:11;;;;;;;2.33;0.80;;;;;;;9.42;nan;94964.22;5000320;28;20780;-72
2021/01/29 13:06:49;;;;;;;5.90;1.67;;;;;;;9.51;nan;94984.22;5001871;28;20463;-71
2021/01/29 13:09:44;;;;;;;5.13;1.27;;;;;;;9.86;nan;94963.06;5002466;28;20751;-72
2021/01/29 13:12:30;;;;;;;3.63;0.90;;;;;;;9.67;nan;94956.00;4998900;28;20490;-71
2021/01/29 13:15:10;;;;;;;10.07;3.17;;;;;;;9.48;nan;94979.28;5003969;28;20837;-72
2021/01/29 13:17:40;;;;;;;15.80;4.33;;;;;;;9.47;nan;94964.66;5008150;28;20976;-71
2021/01/29 13:20:11;;;;;;;8.60;1.80;;;;;;;;;;5004700;28;20859;-72
2021/01/29 13:22:42;;;;;;;5.33;0.90;;;;;;;9.32;nan;94952.97;5005271;28;21096;-72
2021/01/29 13:25:28;;;;;;;7.30;1.80;;;;;;;;;;5003940;28;20471;-71